sensor_id;sensor_type;location;lat;lon;timestamp;pressure;altitude;pressure_sealevel;temperature;humidity
27294;BME280;14785;52.556;13.430;2023-02-11T00:00:11;102058.09;;;4.78;100.00
27294;BME280;14785;52.556;13.430;2023-02-11T00:02:37;102064.56;;;4.73;100.00
27294;BME280;14785;52.556;13.430;2023-02-11T00:05:03;102057.84;;;4.83;100.00
27294;BME280;14785;52.556;13.430;2023-02-11T00:07:32;102063.03;;;4.84;100.00
27294;BME280;14785;52.556;13.430;2023-02-11T00:09:57;102078.06;;;4.82;100.00
27294;BME280;14785;52.556;13.430;2023-02-11T00:12:23;102074.44;;;4.85;100.00
27294;BME280;14785;52.556;13.430;2023-02-11T00:14:49;102098.91;;;4.71;100.00
27294;BME280;14785;52.556;13.430;2023-02-11T00:17:15;102097.47;;;4.81;100.00
27294;BME280;14785;52.556;13.430;2023-02-11T00:19:40;102087.50;;;4.71;100.00
27294;BME280;14785;52.556;13.430;2023-02-11T00:22:06;102103.50;;;4.68;100.00
27294;BME280;14785;52.556;13.430;2023-02-11T00:24:31;102090.81;;;4.59;100.00
27294;BME280;14785;52.556;13.430;2023-02-11T00:26:57;102083.34;;;4.67;100.00
27294;BME280;14785;52.556;13.430;2023-02-11T00:29:22;102061.66;;;4.62;100.00
27294;BME280;14785;52.556;13.430;2023-02-11T00:31:48;102061.31;;;4.68;100.00
27294;BME280;14785;52.556;13.430;2023-02-11T00:34:13;102056.41;;;4.62;100.00
27294;BME280;14785;52.556;13.430;2023-02-11T00:36:39;102055.03;;;4.70;100.00
27294;BME280;14785;52.556;13.430;2023-02-11T00:39:06;102063.53;;;4.60;100.00
27294;BME280;14785;52.556;13.430;2023-02-11T00:41:32;102065.25;;;4.61;100.00
27294;BME280;14785;52.556;13.430;2023-02-11T00:43:57;102074.75;;;4.63;100.00
27294;BME280;14785;52.556;13.430;2023-02-11T00:46:23;102066.34;;;4.72;100.00
27294;BME280;14785;52.556;13.430;2023-02-11T00:48:49;102062.34;;;4.81;100.00
27294;BME280;14785;52.556;13.430;2023-02-11T00:51:16;102077.66;;;4.74;100.00
27294;BME280;14785;52.556;13.430;2023-02-11T00:53:41;102059.97;;;4.92;100.00
27294;BME280;14785;52.556;13.430;2023-02-11T00:56:07;102076.47;;;4.80;100.00
27294;BME280;14785;52.556;13.430;2023-02-11T00:58:33;102067.13;;;4.74;100.00
27294;BME280;14785;52.556;13.430;2023-02-11T01:00:58;102064.47;;;4.90;100.00
27294;BME280;14785;52.556;13.430;2023-02-11T01:03:24;102051.47;;;4.71;100.00
27294;BME280;14785;52.556;13.430;2023-02-11T01:05:49;102041.59;;;4.75;100.00
27294;BME280;14785;52.556;13.430;2023-02-11T01:08:15;102024.34;;;4.85;100.00
27294;BME280;14785;52.556;13.430;2023-02-11T01:10:40;102013.38;;;4.77;100.00
27294;BME280;14785;52.556;13.430;2023-02-11T01:13:06;101980.00;;;4.91;100.00
27294;BME280;14785;52.556;13.430;2023-02-11T01:15:32;101995.34;;;4.85;100.00
27294;BME280;14785;52.556;13.430;2023-02-11T01:17:59;101986.56;;;5.00;100.00
27294;BME280;14785;52.556;13.430;2023-02-11T01:20:27;101998.44;;;5.07;100.00
27294;BME280;14785;52.556;13.430;2023-02-11T01:22:52;101972.09;;;5.21;100.00
27294;BME280;14785;52.556;13.430;2023-02-11T01:25:18;102006.59;;;4.73;100.00
27294;BME280;14785;52.556;13.430;2023-02-11T01:27:43;101982.78;;;4.74;100.00
27294;BME280;14785;52.556;13.430;2023-02-11T01:30:11;101987.28;;;4.88;100.00
27294;BME280;14785;52.556;13.430;2023-02-11T01:32:37;101971.47;;;5.02;100.00
27294;BME280;14785;52.556;13.430;2023-02-11T01:35:03;101987.13;;;5.05;100.00
27294;BME280;14785;52.556;13.430;2023-02-11T01:37:32;102005.19;;;4.97;100.00
27294;BME280;14785;52.556;13.430;2023-02-11T01:39:57;101988.28;;;4.85;100.00
27294;BME280;14785;52.556;13.430;2023-02-11T01:42:23;101971.47;;;5.02;100.00
27294;BME280;14785;52.556;13.430;2023-02-11T01:44:51;101981.69;;;5.08;100.00
27294;BME280;14785;52.556;13.430;2023-02-11T01:47:17;101972.34;;;5.02;100.00
27294;BME280;14785;52.556;13.430;2023-02-11T01:49:56;101980.00;;;5.07;100.00
27294;BME280;14785;52.556;13.430;2023-02-11T01:52:36;101988.28;;;5.15;100.00
27294;BME280;14785;52.556;13.430;2023-02-11T01:55:10;101984.66;;;5.02;100.00
27294;BME280;14785;52.556;13.430;2023-02-11T01:57:58;101989.72;;;4.91;100.00
27294;BME280;14785;52.556;13.430;2023-02-11T02:00:33;101958.53;;;5.13;100.00
27294;BME280;14785;52.556;13.430;2023-02-11T02:03:09;101959.31;;;5.29;100.00
27294;BME280;14785;52.556;13.430;2023-02-11T02:05:48;101968.31;;;5.11;100.00
27294;BME280;14785;52.556;13.430;2023-02-11T02:08:28;101968.34;;;5.25;100.00
27294;BME280;14785;52.556;13.430;2023-02-11T02:10:57;101990.03;;;5.30;100.00
27294;BME280;14785;52.556;13.430;2023-02-11T02:13:26;101964.59;;;5.29;100.00
27294;BME280;14785;52.556;13.430;2023-02-11T02:15:54;101951.69;;;5.24;100.00
27294;BME280;14785;52.556;13.430;2023-02-11T02:27:43;101963.44;;;5.19;100.00
27294;BME280;14785;52.556;13.430;2023-02-11T02:36:30;101929.75;;;5.38;100.00
27294;BME280;14785;52.556;13.430;2023-02-11T02:39:12;101966.34;;;5.14;100.00
27294;BME280;14785;52.556;13.430;2023-02-11T02:41:40;101941.13;;;5.24;100.00
27294;BME280;14785;52.556;13.430;2023-02-11T02:44:07;101929.16;;;5.19;100.00
27294;BME280;14785;52.556;13.430;2023-02-11T02:46:33;101924.44;;;5.24;100.00
27294;BME280;14785;52.556;13.430;2023-02-11T02:48:59;101943.66;;;5.12;100.00
27294;BME280;14785;52.556;13.430;2023-02-11T03:08:17;101928.38;;;5.17;100.00
27294;BME280;14785;52.556;13.430;2023-02-11T03:10:50;101912.19;;;5.23;100.00
27294;BME280;14785;52.556;13.430;2023-02-11T03:13:19;101914.47;;;5.29;100.00
27294;BME280;14785;52.556;13.430;2023-02-11T03:15:48;101911.63;;;5.18;100.00
27294;BME280;14785;52.556;13.430;2023-02-11T03:18:18;101896.09;;;5.27;100.00
27294;BME280;14785;52.556;13.430;2023-02-11T03:20:47;101900.16;;;5.19;100.00
27294;BME280;14785;52.556;13.430;2023-02-11T03:23:18;101907.78;;;5.37;100.00
27294;BME280;14785;52.556;13.430;2023-02-11T03:26:14;101906.94;;;5.23;100.00
27294;BME280;14785;52.556;13.430;2023-02-11T03:28:54;101911.25;;;5.24;100.00
27294;BME280;14785;52.556;13.430;2023-02-11T03:31:27;101892.22;;;5.33;100.00
27294;BME280;14785;52.556;13.430;2023-02-11T03:36:41;101901.84;;;5.20;100.00
27294;BME280;14785;52.556;13.430;2023-02-11T03:39:16;101887.31;;;5.27;100.00
27294;BME280;14785;52.556;13.430;2023-02-11T03:41:44;101901.84;;;5.20;100.00
27294;BME280;14785;52.556;13.430;2023-02-11T03:44:12;101890.34;;;5.35;100.00
27294;BME280;14785;52.556;13.430;2023-02-11T03:46:42;101908.06;;;5.33;100.00
27294;BME280;14785;52.556;13.430;2023-02-11T03:49:12;101892.03;;;5.36;100.00
27294;BME280;14785;52.556;13.430;2023-02-11T03:51:39;101898.19;;;5.36;100.00
27294;BME280;14785;52.556;13.430;2023-02-11T03:54:09;101891.88;;;5.53;100.00
27294;BME280;14785;52.556;13.430;2023-02-11T03:56:43;101885.19;;;5.47;100.00
27294;BME280;14785;52.556;13.430;2023-02-11T03:59:11;101885.94;;;5.35;100.00
27294;BME280;14785;52.556;13.430;2023-02-11T04:01:36;101898.94;;;5.38;100.00
27294;BME280;14785;52.556;13.430;2023-02-11T04:04:02;101902.59;;;5.36;100.00
27294;BME280;14785;52.556;13.430;2023-02-11T04:06:27;101901.03;;;5.47;100.00
27294;BME280;14785;52.556;13.430;2023-02-11T04:08:53;101898.47;;;5.46;100.00
27294;BME280;14785;52.556;13.430;2023-02-11T04:11:18;101893.38;;;5.57;100.00
27294;BME280;14785;52.556;13.430;2023-02-11T04:13:43;101888.84;;;5.45;100.00
27294;BME280;14785;52.556;13.430;2023-02-11T04:16:09;101897.53;;;5.47;100.00
27294;BME280;14785;52.556;13.430;2023-02-11T04:18:34;101905.16;;;5.51;100.00
27294;BME280;14785;52.556;13.430;2023-02-11T04:21:00;101900.53;;;5.69;100.00
27294;BME280;14785;52.556;13.430;2023-02-11T04:23:25;101899.78;;;5.53;100.00
27294;BME280;14785;52.556;13.430;2023-02-11T04:25:51;101895.38;;;5.53;100.00
27294;BME280;14785;52.556;13.430;2023-02-11T04:28:16;101900.38;;;5.58;100.00
27294;BME280;14785;52.556;13.430;2023-02-11T04:30:41;101893.19;;;5.60;100.00
27294;BME280;14785;52.556;13.430;2023-02-11T04:33:07;101904.50;;;5.62;100.00
27294;BME280;14785;52.556;13.430;2023-02-11T04:35:32;101896.88;;;5.57;100.00
27294;BME280;14785;52.556;13.430;2023-02-11T04:37:58;101903.19;;;5.55;100.00
27294;BME280;14785;52.556;13.430;2023-02-11T04:40:23;101882.63;;;5.60;100.00
27294;BME280;14785;52.556;13.430;2023-02-11T04:42:48;101888.94;;;5.43;100.00
27294;BME280;14785;52.556;13.430;2023-02-11T04:45:14;101888.66;;;5.34;100.00
27294;BME280;14785;52.556;13.430;2023-02-11T04:47:39;101875.84;;;5.42;100.00
27294;BME280;14785;52.556;13.430;2023-02-11T04:50:05;101883.28;;;5.49;100.00
27294;BME280;14785;52.556;13.430;2023-02-11T04:52:30;101881.50;;;5.36;100.00
27294;BME280;14785;52.556;13.430;2023-02-11T04:54:56;101866.44;;;5.38;100.00
27294;BME280;14785;52.556;13.430;2023-02-11T04:57:21;101858.13;;;5.44;100.00
27294;BME280;14785;52.556;13.430;2023-02-11T04:59:47;101871.31;;;5.30;100.00
27294;BME280;14785;52.556;13.430;2023-02-11T05:02:13;101850.78;;;5.49;100.00
27294;BME280;14785;52.556;13.430;2023-02-11T05:04:38;101859.25;;;5.54;100.00
27294;BME280;14785;52.556;13.430;2023-02-11T05:07:03;101856.34;;;5.58;100.00
27294;BME280;14785;52.556;13.430;2023-02-11T05:09:29;101857.19;;;5.31;100.00
27294;BME280;14785;52.556;13.430;2023-02-11T05:11:54;101847.41;;;5.47;100.00
27294;BME280;14785;52.556;13.430;2023-02-11T05:14:20;101844.19;;;5.42;100.00
27294;BME280;14785;52.556;13.430;2023-02-11T05:16:45;101844.19;;;5.42;100.00
27294;BME280;14785;52.556;13.430;2023-02-11T05:19:11;101847.97;;;5.38;100.00
27294;BME280;14785;52.556;13.430;2023-02-11T05:21:36;101823.25;;;5.39;100.00
27294;BME280;14785;52.556;13.430;2023-02-11T05:24:01;101824.78;;;5.43;100.00
27294;BME280;14785;52.556;13.430;2023-02-11T05:26:27;101818.94;;;5.38;100.00
27294;BME280;14785;52.556;13.430;2023-02-11T05:28:52;101814.59;;;5.51;100.00
27294;BME280;14785;52.556;13.430;2023-02-11T05:31:18;101819.66;;;5.54;100.00
27294;BME280;14785;52.556;13.430;2023-02-11T05:33:43;101822.31;;;5.54;100.00
27294;BME280;14785;52.556;13.430;2023-02-11T05:36:11;101814.41;;;5.54;100.00
27294;BME280;14785;52.556;13.430;2023-02-11T05:38:38;101819.38;;;5.58;100.00
27294;BME280;14785;52.556;13.430;2023-02-11T05:41:04;101824.41;;;5.49;100.00
27294;BME280;14785;52.556;13.430;2023-02-11T05:43:31;101817.78;;;5.42;100.00
27294;BME280;14785;52.556;13.430;2023-02-11T05:45:57;101803.94;;;5.52;100.00
27294;BME280;14785;52.556;13.430;2023-02-11T05:48:22;101811.94;;;5.51;100.00
27294;BME280;14785;52.556;13.430;2023-02-11T05:50:47;101819.31;;;5.46;100.00
27294;BME280;14785;52.556;13.430;2023-02-11T05:53:13;101813.47;;;5.41;100.00
27294;BME280;14785;52.556;13.430;2023-02-11T05:55:38;101832.63;;;5.44;100.00
27294;BME280;14785;52.556;13.430;2023-02-11T05:58:05;101831.19;;;5.53;100.00
27294;BME280;14785;52.556;13.430;2023-02-11T06:00:31;101833.44;;;5.59;100.00
27294;BME280;14785;52.556;13.430;2023-02-11T06:02:56;101833.72;;;5.54;100.00
27294;BME280;14785;52.556;13.430;2023-02-11T06:05:21;101838.53;;;5.48;100.00
27294;BME280;14785;52.556;13.430;2023-02-11T06:07:47;101843.81;;;5.48;100.00
27294;BME280;14785;52.556;13.430;2023-02-11T06:10:12;101840.06;;;5.52;100.00
27294;BME280;14785;52.556;13.430;2023-02-11T06:12:38;101864.16;;;5.60;100.00
27294;BME280;14785;52.556;13.430;2023-02-11T06:15:04;101864.53;;;5.54;100.00
27294;BME280;14785;52.556;13.430;2023-02-11T06:17:30;101853.78;;;5.57;100.00
27294;BME280;14785;52.556;13.430;2023-02-11T06:19:59;101842.59;;;5.53;100.00
27294;BME280;14785;52.556;13.430;2023-02-11T06:22:27;101844.47;;;5.65;100.00
27294;BME280;14785;52.556;13.430;2023-02-11T06:24:52;101837.56;;;5.63;100.00
27294;BME280;14785;52.556;13.430;2023-02-11T06:27:18;101850.88;;;5.61;100.00
27294;BME280;14785;52.556;13.430;2023-02-11T06:29:44;101839.09;;;5.67;100.00
27294;BME280;14785;52.556;13.430;2023-02-11T06:32:10;101826.25;;;5.75;100.00
27294;BME280;14785;52.556;13.430;2023-02-11T06:34:36;101826.81;;;5.66;100.00
27294;BME280;14785;52.556;13.430;2023-02-11T06:37:02;101824.75;;;5.71;100.00
27294;BME280;14785;52.556;13.430;2023-02-11T06:39:27;101819.47;;;5.71;100.00
27294;BME280;14785;52.556;13.430;2023-02-11T06:41:53;101821.72;;;5.77;100.00
27294;BME280;14785;52.556;13.430;2023-02-11T06:44:18;101828.22;;;5.85;100.00
27294;BME280;14785;52.556;13.430;2023-02-11T06:46:43;101825.22;;;5.77;100.00
27294;BME280;14785;52.556;13.430;2023-02-11T06:49:09;101828.22;;;5.85;100.00
27294;BME280;14785;52.556;13.430;2023-02-11T06:51:34;101825.69;;;5.84;100.00
27294;BME280;14785;52.556;13.430;2023-02-11T06:54:00;101843.06;;;5.88;100.00
27294;BME280;14785;52.556;13.430;2023-02-11T06:56:25;101841.91;;;5.92;100.00
27294;BME280;14785;52.556;13.430;2023-02-11T06:58:54;101851.31;;;5.96;100.00
27294;BME280;14785;52.556;13.430;2023-02-11T07:01:20;101863.03;;;5.92;100.00
27294;BME280;14785;52.556;13.430;2023-02-11T07:03:45;101850.72;;;6.05;100.00
27294;BME280;14785;52.556;13.430;2023-02-11T07:06:17;101839.81;;;5.97;100.00
27294;BME280;14785;52.556;13.430;2023-02-11T07:08:43;101844.34;;;5.95;100.00
27294;BME280;14785;52.556;13.430;2023-02-11T07:11:21;101843.69;;;5.92;100.00
27294;BME280;14785;52.556;13.430;2023-02-11T07:13:49;101838.78;;;6.00;100.00
27294;BME280;14785;52.556;13.430;2023-02-11T07:16:17;101855.66;;;5.97;100.00
27294;BME280;14785;52.556;13.430;2023-02-11T07:18:43;101840.81;;;6.09;100.00
27294;BME280;14785;52.556;13.430;2023-02-11T07:21:10;101832.78;;;6.10;100.00
27294;BME280;14785;52.556;13.430;2023-02-11T07:23:37;101831.53;;;6.16;100.00
27294;BME280;14785;52.556;13.430;2023-02-11T07:26:05;101832.41;;;6.16;100.00
27294;BME280;14785;52.556;13.430;2023-02-11T07:28:31;101816.34;;;6.19;100.00
27294;BME280;14785;52.556;13.430;2023-02-11T07:30:58;101835.94;;;6.29;100.00
27294;BME280;14785;52.556;13.430;2023-02-11T07:33:23;101819.09;;;6.30;100.00
27294;BME280;14785;52.556;13.430;2023-02-11T07:35:48;101847.44;;;6.28;100.00
27294;BME280;14785;52.556;13.430;2023-02-11T07:38:14;101824.56;;;6.41;100.00
27294;BME280;14785;52.556;13.430;2023-02-11T07:40:40;101815.34;;;6.34;100.00
27294;BME280;14785;52.556;13.430;2023-02-11T07:43:06;101823.59;;;6.42;100.00
27294;BME280;14785;52.556;13.430;2023-02-11T07:45:31;101825.06;;;6.34;100.00
27294;BME280;14785;52.556;13.430;2023-02-11T07:47:57;101832.28;;;6.44;100.00
27294;BME280;14785;52.556;13.430;2023-02-11T07:50:22;101814.13;;;6.52;100.00
27294;BME280;14785;52.556;13.430;2023-02-11T07:52:47;101846.16;;;6.48;100.00
27294;BME280;14785;52.556;13.430;2023-02-11T07:55:13;101819.41;;;6.52;100.00
27294;BME280;14785;52.556;13.430;2023-02-11T07:57:38;101824.69;;;6.65;100.00
27294;BME280;14785;52.556;13.430;2023-02-11T08:00:05;101833.38;;;6.67;100.00
27294;BME280;14785;52.556;13.430;2023-02-11T08:02:31;101826.72;;;6.61;100.00
27294;BME280;14785;52.556;13.430;2023-02-11T08:04:56;101825.31;;;6.56;100.00
27294;BME280;14785;52.556;13.430;2023-02-11T08:07:22;101812.13;;;6.68;100.00
27294;BME280;14785;52.556;13.430;2023-02-11T08:09:47;101846.06;;;6.62;100.00
27294;BME280;14785;52.556;13.430;2023-02-11T08:12:12;101849.00;;;6.57;100.00
27294;BME280;14785;52.556;13.430;2023-02-11T08:14:38;101866.91;;;6.66;100.00
27294;BME280;14785;52.556;13.430;2023-02-11T08:17:03;101858.03;;;6.67;100.00
27294;BME280;14785;52.556;13.430;2023-02-11T08:19:29;101882.19;;;6.49;100.00
27294;BME280;14785;52.556;13.430;2023-02-11T08:21:55;101881.78;;;6.55;100.00
27294;BME280;14785;52.556;13.430;2023-02-11T08:24:21;101901.88;;;6.57;100.00
27294;BME280;14785;52.556;13.430;2023-02-11T08:26:47;101867.09;;;6.63;100.00
27294;BME280;14785;52.556;13.430;2023-02-11T08:29:14;101884.88;;;6.61;100.00
27294;BME280;14785;52.556;13.430;2023-02-11T08:31:42;101870.09;;;6.71;100.00
27294;BME280;14785;52.556;13.430;2023-02-11T08:34:09;101872.84;;;6.70;100.00
27294;BME280;14785;52.556;13.430;2023-02-11T08:36:37;101894.91;;;6.56;100.00
27294;BME280;14785;52.556;13.430;2023-02-11T08:39:05;101911.34;;;6.47;100.00
27294;BME280;14785;52.556;13.430;2023-02-11T08:41:32;101910.41;;;6.48;100.00
27294;BME280;14785;52.556;13.430;2023-02-11T08:43:58;101931.75;;;6.72;100.00
27294;BME280;14785;52.556;13.430;2023-02-11T08:46:24;101935.16;;;6.47;100.00
27294;BME280;14785;52.556;13.430;2023-02-11T08:48:49;101904.19;;;6.49;100.00
27294;BME280;14785;52.556;13.430;2023-02-11T08:51:23;101904.63;;;6.56;100.00
27294;BME280;14785;52.556;13.430;2023-02-11T08:53:50;101886.41;;;6.51;100.00
27294;BME280;14785;52.556;13.430;2023-02-11T08:56:17;101879.03;;;6.56;100.00
27294;BME280;14785;52.556;13.430;2023-02-11T08:58:44;101891.75;;;6.64;100.00
27294;BME280;14785;52.556;13.430;2023-02-11T09:01:28;101885.50;;;6.52;100.00
27294;BME280;14785;52.556;13.430;2023-02-11T09:03:55;101883.25;;;6.59;100.00
27294;BME280;14785;52.556;13.430;2023-02-11T09:06:21;101878.63;;;6.62;100.00
27294;BME280;14785;52.556;13.430;2023-02-11T09:08:48;101899.03;;;6.60;100.00
27294;BME280;14785;52.556;13.430;2023-02-11T09:11:15;101901.47;;;6.63;100.00
27294;BME280;14785;52.556;13.430;2023-02-11T09:13:43;101892.00;;;6.73;100.00
27294;BME280;14785;52.556;13.430;2023-02-11T09:16:19;101903.25;;;6.89;100.00
27294;BME280;14785;52.556;13.430;2023-02-11T09:18:44;101920.13;;;6.74;100.00
27294;BME280;14785;52.556;13.430;2023-02-11T09:21:10;101914.09;;;6.72;100.00
27294;BME280;14785;52.556;13.430;2023-02-11T09:23:36;101945.97;;;6.83;100.00
27294;BME280;14785;52.556;13.430;2023-02-11T09:26:19;101936.38;;;6.68;100.00
27294;BME280;14785;52.556;13.430;2023-02-11T09:28:45;101949.00;;;6.77;100.00
27294;BME280;14785;52.556;13.430;2023-02-11T09:31:14;101927.69;;;6.66;100.00
27294;BME280;14785;52.556;13.430;2023-02-11T09:33:41;101908.53;;;6.89;100.00
27294;BME280;14785;52.556;13.430;2023-02-11T09:36:13;101920.19;;;6.99;100.00
27294;BME280;14785;52.556;13.430;2023-02-11T09:38:41;101940.00;;;6.80;100.00
27294;BME280;14785;52.556;13.430;2023-02-11T09:44:00;101931.22;;;7.06;100.00
27294;BME280;14785;52.556;13.430;2023-02-11T09:46:30;101944.94;;;6.98;100.00
27294;BME280;14785;52.556;13.430;2023-02-11T09:48:57;101950.84;;;6.89;100.00
27294;BME280;14785;52.556;13.430;2023-02-11T09:54:04;102001.88;;;7.04;100.00
27294;BME280;14785;52.556;13.430;2023-02-11T09:56:32;101980.63;;;7.05;100.00
27294;BME280;14785;52.556;13.430;2023-02-11T09:58:57;101987.00;;;6.89;100.00
27294;BME280;14785;52.556;13.430;2023-02-11T10:09:39;101962.09;;;7.05;100.00
27294;BME280;14785;52.556;13.430;2023-02-11T10:22:57;101959.78;;;7.13;100.00
27294;BME280;14785;52.556;13.430;2023-02-11T10:25:38;101971.03;;;6.90;100.00
27294;BME280;14785;52.556;13.430;2023-02-11T10:28:17;101971.56;;;6.83;100.00
27294;BME280;14785;52.556;13.430;2023-02-11T10:36:02;101978.06;;;6.91;100.00
27294;BME280;14785;52.556;13.430;2023-02-11T10:38:28;101965.03;;;6.88;100.00
27294;BME280;14785;52.556;13.430;2023-02-11T10:40:53;101968.59;;;6.87;100.00
27294;BME280;14785;52.556;13.430;2023-02-11T10:43:22;101959.34;;;6.94;100.00
27294;BME280;14785;52.556;13.430;2023-02-11T10:45:51;101937.97;;;6.97;100.00
27294;BME280;14785;52.556;13.430;2023-02-11T10:48:43;101919.78;;;7.05;100.00
27294;BME280;14785;52.556;13.430;2023-02-11T10:53:37;101924.13;;;7.06;100.00
27294;BME280;14785;52.556;13.430;2023-02-11T10:56:06;101936.06;;;6.99;100.00
27294;BME280;14785;52.556;13.430;2023-02-11T10:58:54;101926.13;;;7.03;100.00
27294;BME280;14785;52.556;13.430;2023-02-11T11:01:21;101891.97;;;7.12;100.00
27294;BME280;14785;52.556;13.430;2023-02-11T11:03:51;101890.16;;;7.00;100.00
27294;BME280;14785;52.556;13.430;2023-02-11T11:06:28;101889.53;;;7.09;100.00
27294;BME280;14785;52.556;13.430;2023-02-11T11:08:55;101895.25;;;7.03;100.00
27294;BME280;14785;52.556;13.430;2023-02-11T11:11:22;101889.75;;;7.06;100.00
27294;BME280;14785;52.556;13.430;2023-02-11T11:16:31;101886.56;;;7.26;100.00
27294;BME280;14785;52.556;13.430;2023-02-11T11:24:19;101847.84;;;7.25;100.00
27294;BME280;14785;52.556;13.430;2023-02-11T11:26:48;101853.97;;;7.13;100.00
27294;BME280;14785;52.556;13.430;2023-02-11T11:29:21;101829.50;;;7.35;100.00
27294;BME280;14785;52.556;13.430;2023-02-11T11:31:54;101839.09;;;7.48;100.00
27294;BME280;14785;52.556;13.430;2023-02-11T11:34:28;101859.69;;;7.32;100.00
27294;BME280;14785;52.556;13.430;2023-02-11T11:36:55;101879.59;;;7.25;100.00
27294;BME280;14785;52.556;13.430;2023-02-11T11:39:32;101875.75;;;7.29;100.00
27294;BME280;14785;52.556;13.430;2023-02-11T11:42:33;101876.53;;;7.31;100.00
27294;BME280;14785;52.556;13.430;2023-02-11T11:45:00;101859.53;;;7.59;100.00
27294;BME280;14785;52.556;13.430;2023-02-11T11:47:40;101878.75;;;7.37;100.00
27294;BME280;14785;52.556;13.430;2023-02-11T11:50:36;101854.69;;;7.40;100.00
27294;BME280;14785;52.556;13.430;2023-02-11T11:53:08;101843.38;;;7.38;100.00
27294;BME280;14785;52.556;13.430;2023-02-11T11:58:27;101868.16;;;7.37;100.00
27294;BME280;14785;52.556;13.430;2023-02-11T12:01:13;101849.31;;;7.42;100.00
27294;BME280;14785;52.556;13.430;2023-02-11T12:12:05;101837.00;;;7.53;100.00
27294;BME280;14785;52.556;13.430;2023-02-11T12:19:56;101813.75;;;7.69;100.00
27294;BME280;14785;52.556;13.430;2023-02-11T12:48:17;101821.78;;;7.80;100.00
27294;BME280;14785;52.556;13.430;2023-02-11T12:59:46;101801.63;;;7.91;100.00
27294;BME280;14785;52.556;13.430;2023-02-11T13:05:00;101820.56;;;7.97;100.00
27294;BME280;14785;52.556;13.430;2023-02-11T13:07:39;101799.78;;;8.04;100.00
27294;BME280;14785;52.556;13.430;2023-02-11T13:12:42;101814.19;;;8.00;100.00
27294;BME280;14785;52.556;13.430;2023-02-11T13:15:29;101801.34;;;7.82;100.00
27294;BME280;14785;52.556;13.430;2023-02-11T13:17:59;101793.44;;;7.94;100.00
27294;BME280;14785;52.556;13.430;2023-02-11T13:23:25;101788.75;;;8.10;100.00
27294;BME280;14785;52.556;13.430;2023-02-11T13:26:18;101810.38;;;8.04;100.00
27294;BME280;14785;52.556;13.430;2023-02-11T13:29:00;101810.31;;;8.40;100.00
27294;BME280;14785;52.556;13.430;2023-02-11T13:31:31;101831.63;;;7.91;100.00
27294;BME280;14785;52.556;13.430;2023-02-11T13:33:56;101805.88;;;8.17;100.00
27294;BME280;14785;52.556;13.430;2023-02-11T13:36:24;101803.22;;;8.17;100.00
27294;BME280;14785;52.556;13.430;2023-02-11T13:39:02;101803.50;;;8.25;100.00
27294;BME280;14785;52.556;13.430;2023-02-11T13:41:39;101798.16;;;8.14;100.00
27294;BME280;14785;52.556;13.430;2023-02-11T13:49:37;101805.00;;;8.29;100.00
27294;BME280;14785;52.556;13.430;2023-02-11T13:52:30;101816.66;;;8.26;100.00
27294;BME280;14785;52.556;13.430;2023-02-11T13:55:22;101809.25;;;8.19;100.00
27294;BME280;14785;52.556;13.430;2023-02-11T14:19:39;101781.69;;;8.21;100.00
27294;BME280;14785;52.556;13.430;2023-02-11T14:22:11;101795.03;;;8.20;100.00
27294;BME280;14785;52.556;13.430;2023-02-11T14:35:46;101762.34;;;8.32;100.00
27294;BME280;14785;52.556;13.430;2023-02-11T14:38:19;101746.34;;;8.33;100.00
27294;BME280;14785;52.556;13.430;2023-02-11T14:43:24;101740.19;;;8.09;100.00
27294;BME280;14785;52.556;13.430;2023-02-11T14:45:53;101765.16;;;8.18;100.00
27294;BME280;14785;52.556;13.430;2023-02-11T14:48:24;101748.66;;;8.14;100.00
27294;BME280;14785;52.556;13.430;2023-02-11T14:50:56;101747.13;;;8.23;100.00
27294;BME280;14785;52.556;13.430;2023-02-11T14:53:24;101758.41;;;8.14;100.00
27294;BME280;14785;52.556;13.430;2023-02-11T14:55:52;101732.91;;;8.24;100.00
27294;BME280;14785;52.556;13.430;2023-02-11T14:58:19;101731.75;;;8.39;100.00
27294;BME280;14785;52.556;13.430;2023-02-11T15:03:50;101720.63;;;8.23;100.00
27294;BME280;14785;52.556;13.430;2023-02-11T15:06:30;101700.56;;;8.42;100.00
27294;BME280;14785;52.556;13.430;2023-02-11T15:09:01;101686.97;;;8.47;100.00
27294;BME280;14785;52.556;13.430;2023-02-11T15:11:31;101713.31;;;8.37;100.00
27294;BME280;14785;52.556;13.430;2023-02-11T15:14:09;101722.41;;;8.57;100.00
27294;BME280;14785;52.556;13.430;2023-02-11T15:16:40;101699.31;;;8.35;100.00
27294;BME280;14785;52.556;13.430;2023-02-11T15:19:18;101718.63;;;8.37;100.00
27294;BME280;14785;52.556;13.430;2023-02-11T15:21:45;101697.81;;;8.44;100.00
27294;BME280;14785;52.556;13.430;2023-02-11T15:24:29;101697.34;;;8.50;100.00
27294;BME280;14785;52.556;13.430;2023-02-11T15:27:13;101703.38;;;8.63;100.00
27294;BME280;14785;52.556;13.430;2023-02-11T15:29:47;101715.41;;;8.56;100.00
27294;BME280;14785;52.556;13.430;2023-02-11T15:32:22;101708.66;;;8.41;100.00
27294;BME280;14785;52.556;13.430;2023-02-11T15:34:49;101724.47;;;8.19;100.00
27294;BME280;14785;52.556;13.430;2023-02-11T15:37:25;101732.22;;;8.33;100.00
27294;BME280;14785;52.556;13.430;2023-02-11T15:39:52;101721.84;;;8.30;100.00
27294;BME280;14785;52.556;13.430;2023-02-11T15:42:20;101741.72;;;8.24;100.00
27294;BME280;14785;52.556;13.430;2023-02-11T15:44:47;101729.84;;;8.41;100.00
27294;BME280;14785;52.556;13.430;2023-02-11T15:47:19;101740.22;;;8.44;100.00